Terminal Aerodrome Forecast
Issued by NWS Newport/Morehead City, NC

Home | Current Version | Previous Version | Graphics & Text | Print | Product List | Glossary On
Versions: 1 2 3 4 5 6 7 8 9 10 11 12 13 14 15 16 17 18 19 20 21 22
830
FTUS42 KMHX 192025 AAE
TAFEWN
TAF AMD
KEWN 192025Z 1920/2018 VRB05KT 2SM -TSRA BKN025CB OVC110
     FM192100 20008KT P6SM VCTS BKN030CB BKN110
     FM200300 VRB04KT P6SM SCT250=

USA.gov is the U.S. government's official web portal to all federal, state and local government web resources and services.